Time;durP1;ratioP1;P1;durP2;ratioP2;P2;SDS_P1;SDS_P2;PMS_P1;PMS_P2;Temp;Humidity;BMP_temperature;BMP_pressure;BME280_temperature;BME280_humidity;BME280_pressure;Samples;Min_cycle;Max_cycle;Signal;HPM_P1;HPM_P2
2023/12/08 00:00:08;;;;;;;1999.90;999.90;;;1.90;99.90;;;;;;5074583;28;20042;-79
2023/12/08 00:02:34;;;;;;;1999.90;999.90;;;2.00;99.90;;;;;;5074571;28;20043;-80
2023/12/08 00:04:59;;;;;;;1999.90;999.90;;;2.00;99.90;;;;;;5089386;28;20034;-80
2023/12/08 00:07:26;;;;;;;1999.90;999.90;;;1.90;99.90;;;;;;5089337;28;20495;-80
2023/12/08 00:09:51;;;;;;;1999.90;999.90;;;1.90;99.90;;;;;;5106531;28;20458;-79
2023/12/08 00:12:17;;;;;;;1999.90;999.90;;;1.90;99.90;;;;;;5086186;28;20036;-80
2023/12/08 00:14:43;;;;;;;1999.90;999.90;;;1.90;99.90;;;;;;5102858;28;20040;-80
2023/12/08 00:17:08;;;;;;;1999.90;999.90;;;1.90;99.90;;;;;;5069221;28;20099;-80
2023/12/08 00:19:34;;;;;;;1999.90;999.90;;;1.90;99.90;;;;;;5109202;28;20035;-80
2023/12/08 00:21:59;;;;;;;1999.90;999.90;;;1.90;99.90;;;;;;5090052;28;20428;-80
2023/12/08 00:24:25;;;;;;;1999.90;999.90;;;1.90;99.90;;;;;;5108140;28;20408;-80
2023/12/08 00:26:51;;;;;;;1999.90;999.90;;;1.90;99.90;;;;;;5069738;28;20043;-80
2023/12/08 00:29:20;;;;;;;1999.90;999.90;;;1.90;99.90;;;;;;5089146;28;20043;-80
2023/12/08 00:31:46;;;;;;;1999.90;999.90;;;1.90;99.90;;;;;;5098884;28;20504;-80
2023/12/08 00:34:11;;;;;;;1999.90;999.90;;;1.90;99.90;;;;;;5085491;28;20509;-80
2023/12/08 00:36:39;;;;;;;1999.90;999.90;;;1.90;99.90;;;;;;5088857;28;20065;-80
2023/12/08 00:39:05;;;;;;;1999.90;999.90;;;1.90;99.90;;;;;;5086133;28;20761;-80
2023/12/08 00:41:31;;;;;;;1999.90;999.90;;;1.90;99.90;;;;;;5072377;28;20039;-80
2023/12/08 00:43:57;;;;;;;1999.90;999.90;;;2.00;99.90;;;;;;5067879;28;20525;-79
2023/12/08 00:46:22;;;;;;;1999.90;999.90;;;1.90;99.90;;;;;;5084499;28;20117;-79
2023/12/08 00:48:48;;;;;;;1999.90;999.90;;;2.00;99.90;;;;;;5083924;28;20036;-80
2023/12/08 00:51:13;;;;;;;1999.90;999.90;;;2.00;99.90;;;;;;5065937;28;20050;-80
2023/12/08 00:53:42;;;;;;;1999.90;999.90;;;1.90;99.90;;;;;;5068486;28;20039;-80
2023/12/08 00:56:09;;;;;;;1999.90;999.90;;;1.90;99.90;;;;;;5085402;28;20039;-79
2023/12/08 00:58:34;;;;;;;1999.90;999.90;;;1.90;99.90;;;;;;5087054;28;20448;-80
2023/12/08 01:01:00;;;;;;;1999.90;999.90;;;1.90;99.90;;;;;;5087406;28;20131;-79
2023/12/08 01:03:25;;;;;;;1999.90;999.90;;;1.90;99.90;;;;;;5070952;28;20155;-79
2023/12/08 01:05:51;;;;;;;1999.90;999.90;;;1.80;99.90;;;;;;5070457;28;20080;-80
2023/12/08 01:08:17;;;;;;;1999.90;999.90;;;1.80;99.90;;;;;;5084101;28;20047;-80
2023/12/08 01:10:42;;;;;;;1999.90;999.90;;;1.80;99.90;;;;;;5105733;28;20084;-79
2023/12/08 01:13:09;;;;;;;1999.90;999.90;;;1.80;99.90;;;;;;5089652;28;20126;-79
2023/12/08 01:15:34;;;;;;;1999.90;999.90;;;1.80;99.90;;;;;;5086297;28;20063;-80
2023/12/08 01:18:00;;;;;;;1999.90;999.90;;;1.80;99.90;;;;;;5099379;28;20108;-79
2023/12/08 01:20:25;;;;;;;1999.90;999.90;;;1.80;99.90;;;;;;5086739;28;20067;-80
2023/12/08 01:22:51;;;;;;;1999.90;999.90;;;1.80;99.90;;;;;;5085827;28;20127;-79
2023/12/08 01:25:17;;;;;;;1999.90;999.90;;;1.80;99.90;;;;;;5068708;28;20562;-79
2023/12/08 01:27:43;;;;;;;1999.90;999.90;;;1.80;99.90;;;;;;5085016;28;20036;-80
2023/12/08 01:30:09;;;;;;;1999.90;999.90;;;1.70;99.90;;;;;;5088759;28;20122;-80
2023/12/08 01:32:35;;;;;;;1999.90;999.90;;;1.70;99.90;;;;;;5067871;28;20039;-79
2023/12/08 01:35:00;;;;;;;1999.90;999.90;;;1.70;99.90;;;;;;5071690;28;20040;-80
2023/12/08 01:37:26;;;;;;;1999.90;999.90;;;1.70;99.90;;;;;;5087267;28;20384;-79
2023/12/08 01:39:51;;;;;;;1999.90;999.90;;;1.70;99.90;;;;;;5102189;28;20045;-80
2023/12/08 01:42:17;;;;;;;1999.90;999.90;;;1.70;99.90;;;;;;5085771;28;20071;-80
2023/12/08 01:44:43;;;;;;;1999.90;999.90;;;1.70;99.90;;;;;;5088083;28;20031;-80
2023/12/08 01:47:09;;;;;;;1999.90;999.90;;;1.70;99.90;;;;;;5070462;28;20044;-80
2023/12/08 01:49:40;;;;;;;1999.90;999.90;;;1.70;99.90;;;;;;5104798;28;20039;-79
2023/12/08 01:52:09;;;;;;;1999.90;999.90;;;1.70;99.90;;;;;;5067102;28;20039;-80
2023/12/08 01:54:35;;;;;;;1999.90;999.90;;;1.70;99.90;;;;;;5083518;28;20031;-79
2023/12/08 01:57:02;;;;;;;1999.90;999.90;;;1.70;99.90;;;;;;5083821;28;20043;-80
2023/12/08 01:59:29;;;;;;;1999.90;999.90;;;1.70;99.90;;;;;;5088673;28;20048;-80
2023/12/08 02:01:54;;;;;;;1999.90;999.90;;;1.70;99.90;;;;;;5087447;28;20046;-80
2023/12/08 02:04:20;;;;;;;1999.90;999.90;;;1.80;99.90;;;;;;5106185;28;20041;-80
2023/12/08 02:06:46;;;;;;;1999.90;999.90;;;1.70;99.90;;;;;;5084539;28;20070;-80
2023/12/08 02:09:12;;;;;;;1999.90;999.90;;;1.70;99.90;;;;;;5070961;28;20374;-80
2023/12/08 02:11:38;;;;;;;1999.90;999.90;;;1.70;99.90;;;;;;5085978;28;20043;-79
2023/12/08 02:14:04;;;;;;;1999.90;999.90;;;1.70;99.90;;;;;;5067108;28;20058;-80
2023/12/08 02:16:53;;;;;;;1999.90;999.90;;;1.70;99.90;;;;;;5083655;28;20043;-80
2023/12/08 02:19:19;;;;;;;1999.90;999.90;;;1.70;99.90;;;;;;5080540;28;20036;-80
2023/12/08 02:21:45;;;;;;;1999.90;999.90;;;1.70;99.90;;;;;;5105871;28;20044;-80
2023/12/08 02:24:10;;;;;;;1999.90;999.90;;;1.70;99.90;;;;;;5104087;28;20044;-80
2023/12/08 02:26:36;;;;;;;1999.90;999.90;;;1.70;99.90;;;;;;5064055;28;20031;-80
2023/12/08 02:29:05;;;;;;;1999.90;999.90;;;1.70;99.90;;;;;;5062889;28;20028;-80
2023/12/08 02:31:43;;;;;;;1999.90;999.90;;;1.70;99.90;;;;;;5083812;28;20044;-80
2023/12/08 02:34:11;;;;;;;1999.90;999.90;;;1.70;99.90;;;;;;5070577;28;20047;-80
2023/12/08 02:36:38;;;;;;;1999.90;999.90;;;1.70;99.90;;;;;;5101251;28;20040;-80
2023/12/08 02:39:06;;;;;;;1999.90;999.90;;;1.70;99.90;;;;;;5086489;28;21200;-80
2023/12/08 02:41:32;;;;;;;1999.90;999.90;;;1.70;99.90;;;;;;5090678;28;20094;-80
2023/12/08 02:43:57;;;;;;;1999.90;999.90;;;1.70;99.90;;;;;;5108376;28;20048;-80
2023/12/08 02:46:23;;;;;;;1999.90;999.90;;;1.70;99.90;;;;;;5073298;28;20043;-80
2023/12/08 02:48:49;;;;;;;1999.90;999.90;;;1.80;99.90;;;;;;5072117;28;20035;-80
2023/12/08 02:51:14;;;;;;;1999.90;999.90;;;1.70;99.90;;;;;;5090237;28;20063;-80
2023/12/08 02:53:40;;;;;;;1999.90;999.90;;;1.70;99.90;;;;;;5071826;28;20035;-80
2023/12/08 02:56:06;;;;;;;1999.90;999.90;;;1.80;99.90;;;;;;5070489;28;20051;-80
2023/12/08 02:58:31;;;;;;;1999.90;999.90;;;1.80;99.90;;;;;;5089705;28;20038;-79
2023/12/08 03:00:57;;;;;;;1999.90;999.90;;;1.80;99.90;;;;;;5073241;28;20398;-80
2023/12/08 03:03:23;;;;;;;1999.90;999.90;;;1.70;99.90;;;;;;5074679;28;20039;-79
2023/12/08 03:05:48;;;;;;;1999.90;999.90;;;1.80;99.90;;;;;;5110125;28;20489;-79
2023/12/08 03:08:14;;;;;;;1999.90;999.90;;;1.80;99.90;;;;;;5087596;28;20040;-80
2023/12/08 03:10:40;;;;;;;1999.90;999.90;;;1.80;99.90;;;;;;5081759;28;20564;-80
2023/12/08 03:13:05;;;;;;;1999.90;999.90;;;1.80;99.90;;;;;;5074785;28;20052;-79
2023/12/08 03:15:31;;;;;;;1999.90;999.90;;;1.80;99.90;;;;;;5070181;28;20155;-80
2023/12/08 03:17:56;;;;;;;1999.90;999.90;;;1.80;99.90;;;;;;5110818;28;20035;-80
2023/12/08 03:20:22;;;;;;;1999.90;999.90;;;1.80;99.90;;;;;;5069972;28;20040;-79
2023/12/08 03:22:48;;;;;;;1999.90;999.90;;;1.80;99.90;;;;;;5068349;28;20122;-81
2023/12/08 03:25:13;;;;;;;1999.90;999.90;;;1.80;99.90;;;;;;5087768;28;20085;-80
2023/12/08 03:27:39;;;;;;;1999.90;999.90;;;1.80;99.90;;;;;;5074758;28;20039;-80
2023/12/08 03:30:05;;;;;;;1999.90;999.90;;;1.80;99.90;;;;;;5072980;28;20040;-80
2023/12/08 03:32:31;;;;;;;1999.90;999.90;;;1.80;99.90;;;;;;5089408;28;20035;-80
2023/12/08 03:34:58;;;;;;;1999.90;999.90;;;1.90;99.90;;;;;;5065829;28;20054;-80
2023/12/08 03:37:23;;;;;;;1999.90;999.90;;;1.80;99.90;;;;;;5105409;28;20131;-80
2023/12/08 03:39:49;;;;;;;1999.90;999.90;;;1.80;99.90;;;;;;5093464;28;20106;-80
2023/12/08 03:42:15;;;;;;;1999.90;999.90;;;1.90;99.90;;;;;;5086676;28;20063;-79
2023/12/08 03:44:40;;;;;;;1999.90;999.90;;;1.90;99.90;;;;;;5088256;27;20466;-80
2023/12/08 03:47:06;;;;;;;1999.90;999.90;;;1.80;99.90;;;;;;5070373;28;20257;-80
2023/12/08 03:49:31;;;;;;;1999.90;999.90;;;1.80;99.90;;;;;;5088945;28;20031;-80
2023/12/08 03:51:57;;;;;;;1999.90;999.90;;;1.80;99.90;;;;;;5071241;28;20032;-79
2023/12/08 03:54:23;;;;;;;1999.90;999.90;;;1.80;99.90;;;;;;5089996;28;20058;-79
2023/12/08 03:56:48;;;;;;;1999.90;999.90;;;1.80;99.90;;;;;;5086173;28;20032;-79
2023/12/08 03:59:14;;;;;;;1999.90;999.90;;;1.80;99.90;;;;;;5070284;28;20503;-79
2023/12/08 04:01:39;;;;;;;1999.90;999.90;;;1.70;99.90;;;;;;5082628;28;20172;-80
2023/12/08 04:04:05;;;;;;;1999.90;999.90;;;1.70;99.90;;;;;;5086478;28;20040;-79
2023/12/08 04:06:30;;;;;;;1999.90;999.90;;;1.60;99.90;;;;;;5068369;28;20165;-79
2023/12/08 04:08:56;;;;;;;1999.90;999.90;;;1.60;99.90;;;;;;5088277;28;20036;-80
2023/12/08 04:11:22;;;;;;;1999.90;999.90;;;1.60;99.90;;;;;;5073198;28;20032;-80
2023/12/08 04:13:47;;;;;;;1999.90;999.90;;;1.50;99.90;;;;;;5108357;28;20127;-80
2023/12/08 04:16:14;;;;;;;1999.90;999.90;;;1.50;99.90;;;;;;5088163;28;20043;-79
2023/12/08 04:18:40;;;;;;;1999.90;999.90;;;1.40;99.90;;;;;;5091656;28;20039;-79
2023/12/08 04:21:05;;;;;;;1999.90;999.90;;;1.40;99.90;;;;;;5069779;28;20058;-79
2023/12/08 04:23:31;;;;;;;1999.90;999.90;;;1.40;99.90;;;;;;5108525;28;20039;-80
2023/12/08 04:25:56;;;;;;;1999.90;999.90;;;1.30;99.90;;;;;;5073435;28;20038;-79
2023/12/08 04:28:22;;;;;;;1999.90;999.90;;;1.30;99.90;;;;;;5090048;28;20040;-79
2023/12/08 04:30:47;;;;;;;1999.90;999.90;;;1.30;99.90;;;;;;5106955;28;20043;-78
2023/12/08 04:33:13;;;;;;;1999.90;999.90;;;1.30;99.90;;;;;;5067896;28;20036;-78
2023/12/08 04:35:38;;;;;;;1999.90;999.90;;;1.30;99.90;;;;;;5085627;28;20085;-78
2023/12/08 04:38:04;;;;;;;1999.90;999.90;;;1.20;99.90;;;;;;5074597;28;20043;-78
2023/12/08 04:40:30;;;;;;;1999.90;999.90;;;1.20;99.90;;;;;;5068435;28;20040;-78
2023/12/08 04:42:55;;;;;;;1999.90;999.90;;;1.20;99.90;;;;;;5087336;28;20522;-78
2023/12/08 04:45:21;;;;;;;1999.90;999.90;;;1.10;99.90;;;;;;5086103;28;20043;-78
2023/12/08 04:47:47;;;;;;;1999.90;999.90;;;1.10;99.90;;;;;;5068818;28;20036;-78
2023/12/08 04:50:12;;;;;;;1999.90;999.90;;;1.10;99.90;;;;;;5104241;28;20037;-78
2023/12/08 04:52:38;;;;;;;1999.90;999.90;;;1.10;99.90;;;;;;5068580;28;20463;-77
2023/12/08 04:55:04;;;;;;;1999.90;999.90;;;1.10;99.90;;;;;;5107012;28;20411;-77
2023/12/08 04:57:31;;;;;;;1999.90;999.90;;;1.10;99.90;;;;;;5101743;28;20043;-77
2023/12/08 04:59:58;;;;;;;1999.90;999.90;;;1.00;99.90;;;;;;5085851;28;20043;-77
2023/12/08 05:02:24;;;;;;;1999.90;999.90;;;1.00;99.90;;;;;;5063908;28;20054;-78
2023/12/08 05:04:50;;;;;;;1999.90;999.90;;;1.00;99.90;;;;;;5068804;28;20047;-78
2023/12/08 05:07:15;;;;;;;1999.90;999.90;;;1.00;99.90;;;;;;5072582;28;20035;-78
2023/12/08 05:09:41;;;;;;;1999.90;999.90;;;1.00;99.90;;;;;;5067140;28;20035;-78
2023/12/08 05:12:06;;;;;;;1999.90;999.90;;;1.00;99.90;;;;;;5097067;28;20059;-78
2023/12/08 05:14:32;;;;;;;1999.90;999.90;;;1.00;99.90;;;;;;5070876;28;20054;-77
2023/12/08 05:16:57;;;;;;;1999.90;999.90;;;1.00;99.90;;;;;;5086283;28;20036;-77
2023/12/08 05:19:23;;;;;;;1999.90;999.90;;;1.00;99.90;;;;;;5087134;28;20543;-77
2023/12/08 05:21:49;;;;;;;1999.90;999.90;;;1.00;99.90;;;;;;5085186;28;20046;-76
2023/12/08 05:24:14;;;;;;;1999.90;999.90;;;1.00;99.90;;;;;;5071474;28;20590;-76
2023/12/08 05:26:40;;;;;;;1999.90;999.90;;;1.00;99.90;;;;;;5069132;28;20037;-76
2023/12/08 05:29:05;;;;;;;1999.90;999.90;;;1.00;99.90;;;;;;5081050;28;20176;-75
2023/12/08 05:31:31;;;;;;;1999.90;999.90;;;1.00;99.90;;;;;;5070351;28;20051;-75
2023/12/08 05:33:57;;;;;;;1999.90;999.90;;;1.00;99.90;;;;;;5071957;28;20040;-75
2023/12/08 05:36:22;;;;;;;1999.90;999.90;;;0.90;99.90;;;;;;5103976;28;20056;-76
2023/12/08 05:38:48;;;;;;;1999.90;999.90;;;1.00;99.90;;;;;;5083362;28;20092;-76
2023/12/08 05:41:13;;;;;;;1999.90;999.90;;;1.00;99.90;;;;;;5086359;28;20031;-76
2023/12/08 05:43:39;;;;;;;1999.90;999.90;;;1.00;99.90;;;;;;5106898;28;20087;-76
2023/12/08 05:46:04;;;;;;;1999.90;999.90;;;1.00;99.90;;;;;;5069419;28;20043;-77
2023/12/08 05:48:30;;;;;;;1999.90;999.90;;;1.00;99.90;;;;;;5082601;28;20031;-77
2023/12/08 05:50:56;;;;;;;1999.90;999.90;;;1.00;99.90;;;;;;5086377;28;20039;-78
2023/12/08 05:53:21;;;;;;;1999.90;999.90;;;1.00;99.90;;;;;;5087654;28;20031;-78
2023/12/08 05:55:47;;;;;;;1999.90;999.90;;;1.00;99.90;;;;;;5071180;28;20063;-78
2023/12/08 05:58:13;;;;;;;1999.90;999.90;;;1.00;99.90;;;;;;5068055;28;20034;-78
2023/12/08 06:00:38;;;;;;;1999.90;999.90;;;1.00;99.90;;;;;;5104682;28;20085;-79
2023/12/08 06:03:04;;;;;;;1999.90;999.90;;;1.00;99.90;;;;;;5081781;28;20093;-78
2023/12/08 06:05:30;;;;;;;1999.90;999.90;;;1.00;99.90;;;;;;5068651;28;20035;-78
2023/12/08 06:07:55;;;;;;;1999.90;999.90;;;1.00;99.90;;;;;;5069306;28;20902;-79
2023/12/08 06:10:23;;;;;;;1999.90;999.90;;;1.00;99.90;;;;;;5088947;28;20054;-78
2023/12/08 06:12:48;;;;;;;1999.90;999.90;;;1.00;99.90;;;;;;5086227;28;20035;-78
2023/12/08 06:15:14;;;;;;;1999.90;999.90;;;1.00;99.90;;;;;;5083240;28;20049;-79
2023/12/08 06:17:40;;;;;;;1999.90;999.90;;;1.00;99.90;;;;;;5076342;28;20049;-78
2023/12/08 06:20:08;;;;;;;1999.90;999.90;;;1.00;99.90;;;;;;5080443;28;20043;-78
2023/12/08 06:22:34;;;;;;;1999.90;999.90;;;0.90;99.90;;;;;;5083905;28;20135;-79
2023/12/08 06:25:00;;;;;;;1999.90;999.90;;;1.00;99.90;;;;;;5067945;28;20048;-77
2023/12/08 06:27:26;;;;;;;1999.90;999.90;;;1.00;99.90;;;;;;5062494;28;20391;-78
2023/12/08 06:29:51;;;;;;;1999.90;999.90;;;1.00;99.90;;;;;;5082814;28;20057;-78
2023/12/08 06:32:20;;;;;;;1999.90;999.90;;;0.90;99.90;;;;;;5071627;28;20040;-78
2023/12/08 06:34:46;;;;;;;1999.90;999.90;;;0.90;99.90;;;;;;5088148;28;20054;-77
2023/12/08 06:37:12;;;;;;;1999.90;999.90;;;0.90;99.90;;;;;;5069291;28;20040;-79
2023/12/08 06:39:39;;;;;;;1999.90;999.90;;;0.90;99.90;;;;;;5070379;28;20118;-80
2023/12/08 06:42:06;;;;;;;1999.90;999.90;;;0.90;99.90;;;;;;5089858;28;20048;-80
2023/12/08 06:44:31;;;;;;;1999.90;999.90;;;1.00;99.90;;;;;;5083310;28;20123;-78
2023/12/08 06:46:57;;;;;;;1999.90;999.90;;;0.90;99.90;;;;;;5085963;28;20597;-78
2023/12/08 06:49:22;;;;;;;1999.90;999.90;;;0.90;99.90;;;;;;5101427;28;20046;-79
2023/12/08 06:51:48;;;;;;;1999.90;999.90;;;0.90;99.90;;;;;;5065915;28;20036;-79
2023/12/08 06:54:14;;;;;;;1999.90;999.90;;;1.00;99.90;;;;;;5068456;28;20054;-79
2023/12/08 06:56:42;;;;;;;1999.90;999.90;;;0.90;99.90;;;;;;5100161;28;20483;-79
2023/12/08 06:59:08;;;;;;;1999.90;999.90;;;1.00;99.90;;;;;;5084042;28;20035;-80
2023/12/08 07:01:34;;;;;;;1999.90;999.90;;;0.90;99.90;;;;;;5083140;28;20043;-78
2023/12/08 07:04:00;;;;;;;1999.90;999.90;;;0.90;99.90;;;;;;5086014;28;20052;-79
2023/12/08 07:06:26;;;;;;;1999.90;999.90;;;0.90;99.90;;;;;;5087960;28;20407;-79
2023/12/08 07:08:51;;;;;;;1999.90;999.90;;;0.90;99.90;;;;;;5066271;28;20031;-79
2023/12/08 07:11:17;;;;;;;1999.90;999.90;;;0.90;99.90;;;;;;5085985;28;20184;-79
2023/12/08 07:13:42;;;;;;;1999.90;999.90;;;0.90;99.90;;;;;;5089469;28;20042;-79
2023/12/08 07:16:09;;;;;;;1999.90;999.90;;;0.90;99.90;;;;;;5087341;28;20071;-80
2023/12/08 07:18:37;;;;;;;1999.90;999.90;;;0.90;99.90;;;;;;5063617;28;20059;-80
2023/12/08 07:21:04;;;;;;;1999.90;999.90;;;0.90;99.90;;;;;;5066498;28;20059;-80
2023/12/08 07:23:29;;;;;;;1999.90;999.90;;;1.00;99.90;;;;;;5087840;28;20039;-79
2023/12/08 07:25:55;;;;;;;1999.90;999.90;;;1.00;99.90;;;;;;5074476;28;20044;-80
2023/12/08 07:28:20;;;;;;;1999.90;999.90;;;0.90;99.90;;;;;;5110428;28;20476;-80
2023/12/08 07:30:46;;;;;;;1999.90;999.90;;;0.90;99.90;;;;;;5089821;28;20036;-80
2023/12/08 07:33:12;;;;;;;1999.90;999.90;;;1.00;99.90;;;;;;5086557;28;20035;-81
2023/12/08 07:35:37;;;;;;;1999.90;999.90;;;1.00;99.90;;;;;;5106045;28;20062;-81
2023/12/08 07:38:03;;;;;;;1999.90;999.90;;;0.90;99.90;;;;;;5100492;28;20159;-80
2023/12/08 07:40:29;;;;;;;1999.90;999.90;;;1.00;99.90;;;;;;5091145;28;20043;-80
2023/12/08 07:42:55;;;;;;;1999.90;999.90;;;1.00;99.90;;;;;;5073358;28;20052;-81
2023/12/08 07:45:21;;;;;;;1999.90;999.90;;;1.00;99.90;;;;;;5089653;28;20050;-80
2023/12/08 07:47:47;;;;;;;1999.90;999.90;;;1.00;99.90;;;;;;5069752;28;20380;-79
2023/12/08 07:50:13;;;;;;;1999.90;999.90;;;1.00;99.90;;;;;;5110279;28;20047;-80
2023/12/08 07:52:41;;;;;;;1999.90;999.90;;;1.00;99.90;;;;;;5099243;28;20067;-80
2023/12/08 07:55:08;;;;;;;1999.90;999.90;;;1.00;99.90;;;;;;5088877;28;20409;-80
2023/12/08 07:57:34;;;;;;;1999.90;999.90;;;1.00;99.90;;;;;;5090445;28;20429;-80
2023/12/08 08:00:00;;;;;;;1999.90;999.90;;;1.00;99.90;;;;;;5073041;28;20055;-80
2023/12/08 08:02:26;;;;;;;1999.90;999.90;;;1.00;99.90;;;;;;5108670;28;20492;-80
2023/12/08 08:04:51;;;;;;;1999.90;999.90;;;1.00;99.90;;;;;;5108007;28;20036;-80
2023/12/08 08:07:17;;;;;;;1999.90;999.90;;;1.00;99.90;;;;;;5092326;28;20182;-80
2023/12/08 08:09:42;;;;;;;1999.90;999.90;;;1.00;99.90;;;;;;5083281;28;20344;-80
2023/12/08 08:12:09;;;;;;;1999.90;999.90;;;1.00;99.90;;;;;;5086020;28;20130;-80
2023/12/08 08:14:35;;;;;;;1999.90;999.90;;;1.00;99.90;;;;;;5068522;28;20067;-80
2023/12/08 08:17:01;;;;;;;1999.90;999.90;;;1.00;99.90;;;;;;5067419;28;20530;-80
2023/12/08 08:19:27;;;;;;;1999.90;999.90;;;1.10;99.90;;;;;;5081927;28;20400;-81
2023/12/08 08:21:53;;;;;;;1999.90;999.90;;;1.10;99.90;;;;;;5074691;28;20031;-80
2023/12/08 08:24:18;;;;;;;1999.90;999.90;;;1.10;99.90;;;;;;5072957;28;20043;-80
2023/12/08 08:26:44;;;;;;;1999.90;999.90;;;1.10;99.90;;;;;;5088887;28;20036;-81
2023/12/08 08:29:10;;;;;;;1999.90;999.90;;;1.10;99.90;;;;;;5104468;28;20152;-80
2023/12/08 08:31:36;;;;;;;1999.90;999.90;;;1.10;99.90;;;;;;5065732;28;20475;-80
2023/12/08 08:34:03;;;;;;;1999.90;999.90;;;1.10;99.90;;;;;;5108317;28;20035;-80
2023/12/08 08:36:29;;;;;;;1999.90;999.90;;;1.20;99.90;;;;;;5070051;28;20043;-81
2023/12/08 08:38:54;;;;;;;1999.90;999.90;;;1.20;99.90;;;;;;5086292;28;20052;-81
2023/12/08 08:41:21;;;;;;;1999.90;999.90;;;1.20;99.90;;;;;;5079757;28;20043;-81
2023/12/08 08:43:47;;;;;;;1999.90;999.90;;;1.20;99.90;;;;;;5073025;28;20061;-81
2023/12/08 08:46:13;;;;;;;1999.90;999.90;;;1.20;99.90;;;;;;5065348;28;20040;-80
2023/12/08 08:48:39;;;;;;;1999.90;999.90;;;1.20;99.90;;;;;;5069899;28;20071;-81
2023/12/08 08:51:04;;;;;;;1999.90;999.90;;;1.20;99.90;;;;;;5090963;28;20403;-80
2023/12/08 08:53:30;;;;;;;1999.90;999.90;;;1.20;99.90;;;;;;5069980;28;20110;-81
2023/12/08 08:55:56;;;;;;;1999.90;999.90;;;1.20;99.90;;;;;;5087691;28;20031;-80
2023/12/08 08:58:21;;;;;;;1999.90;999.90;;;1.20;99.90;;;;;;5106986;28;20437;-81
2023/12/08 09:00:47;;;;;;;1999.90;999.90;;;1.20;99.90;;;;;;5106879;28;20031;-81
2023/12/08 09:03:13;;;;;;;1999.90;999.90;;;1.20;99.90;;;;;;5083733;28;20044;-81
2023/12/08 09:05:41;;;;;;;1999.90;999.90;;;1.20;99.90;;;;;;5067544;28;20086;-81
2023/12/08 09:08:08;;;;;;;1999.90;999.90;;;1.30;99.90;;;;;;5070846;28;20076;-81
2023/12/08 09:10:34;;;;;;;1999.90;999.90;;;1.20;99.90;;;;;;5084950;28;20043;-81
2023/12/08 09:12:59;;;;;;;1999.90;999.90;;;1.30;99.90;;;;;;5067949;28;20068;-81
2023/12/08 09:15:25;;;;;;;1999.90;999.90;;;1.20;99.90;;;;;;5089718;28;20035;-81
2023/12/08 09:17:51;;;;;;;1999.90;999.90;;;1.30;99.90;;;;;;5083926;28;20178;-81
2023/12/08 09:20:17;;;;;;;1999.90;999.90;;;1.30;99.90;;;;;;5088775;28;20043;-81
2023/12/08 09:22:44;;;;;;;1999.90;999.90;;;1.30;99.90;;;;;;5062142;28;20046;-81
2023/12/08 09:25:10;;;;;;;1999.90;999.90;;;1.30;99.90;;;;;;5087019;28;20047;-81
2023/12/08 09:27:36;;;;;;;1999.90;999.90;;;1.30;99.90;;;;;;5084767;27;20035;-81
2023/12/08 09:30:02;;;;;;;1999.90;999.90;;;1.30;99.90;;;;;;5065916;28;20118;-81
2023/12/08 09:32:28;;;;;;;1999.90;999.90;;;1.30;99.90;;;;;;5087898;28;20039;-81
2023/12/08 09:34:54;;;;;;;1999.90;999.90;;;1.40;99.90;;;;;;5085933;28;20043;-81
2023/12/08 09:37:20;;;;;;;1999.90;999.90;;;1.40;99.90;;;;;;5086471;28;20044;-81
2023/12/08 09:39:45;;;;;;;1999.90;999.90;;;1.30;99.90;;;;;;5085545;28;20035;-80
2023/12/08 09:42:39;;;;;;;1999.90;999.90;;;1.40;99.90;;;;;;5068867;28;20062;-81
2023/12/08 09:45:05;;;;;;;1999.90;999.90;;;1.40;99.90;;;;;;5084059;28;20058;-81
2023/12/08 09:47:34;;;;;;;1999.90;999.90;;;1.40;99.90;;;;;;5089633;28;20035;-81
2023/12/08 09:50:01;;;;;;;1999.90;999.90;;;1.40;99.90;;;;;;5085465;28;20488;-81
2023/12/08 09:52:29;;;;;;;1999.90;999.90;;;1.40;99.90;;;;;;5066401;28;20039;-81
2023/12/08 09:54:55;;;;;;;1999.90;999.90;;;1.40;99.90;;;;;;5105935;28;20399;-81
2023/12/08 09:57:21;;;;;;;1999.90;999.90;;;1.40;99.90;;;;;;5082575;28;20048;-81
2023/12/08 09:59:48;;;;;;;1999.90;999.90;;;1.50;99.90;;;;;;5078604;28;20051;-81
2023/12/08 10:02:14;;;;;;;1999.90;999.90;;;1.50;99.90;;;;;;5070756;28;20126;-81
2023/12/08 10:04:40;;;;;;;1999.90;999.90;;;1.50;99.90;;;;;;5073307;28;20567;-81
2023/12/08 10:07:09;;;;;;;1999.90;999.90;;;1.50;99.90;;;;;;5066087;28;20040;-81
2023/12/08 10:09:36;;;;;;;1999.90;999.90;;;1.50;99.90;;;;;;5087485;28;20035;-81
2023/12/08 10:12:02;;;;;;;1999.90;999.90;;;1.50;99.90;;;;;;5082963;28;20419;-81
2023/12/08 10:14:27;;;;;;;1999.90;999.90;;;1.50;99.90;;;;;;5108263;28;20031;-81
2023/12/08 10:16:53;;;;;;;1999.90;999.90;;;1.50;99.90;;;;;;5103908;28;20032;-81
2023/12/08 10:19:24;;;;;;;1999.90;999.90;;;1.50;99.90;;;;;;5082474;28;20048;-81
2023/12/08 10:22:00;;;;;;;1999.90;999.90;;;1.60;99.90;;;;;;5083361;28;20039;-81
2023/12/08 10:24:30;;;;;;;1999.90;999.90;;;1.50;99.90;;;;;;5065183;28;20036;-81
2023/12/08 10:26:59;;;;;;;1999.90;999.90;;;1.60;99.90;;;;;;5069036;28;20101;-81
2023/12/08 10:29:34;;;;;;;1999.90;999.90;;;1.60;99.90;;;;;;5107597;28;20044;-81
2023/12/08 10:32:00;;;;;;;1999.90;999.90;;;1.60;99.90;;;;;;5089112;28;20081;-81
2023/12/08 10:34:27;;;;;;;1999.90;999.90;;;1.60;99.90;;;;;;5083406;28;20054;-81
2023/12/08 10:36:56;;;;;;;1999.90;999.90;;;1.60;99.90;;;;;;5082896;28;20085;-81
2023/12/08 10:39:23;;;;;;;1999.90;999.90;;;1.70;99.90;;;;;;5084946;28;20039;-81
2023/12/08 10:41:52;;;;;;;1999.90;999.90;;;1.70;99.90;;;;;;5073936;28;20035;-81
2023/12/08 10:44:19;;;;;;;1999.90;999.90;;;1.70;99.90;;;;;;5085393;28;20062;-80
2023/12/08 10:46:49;;;;;;;1999.90;999.90;;;1.70;99.90;;;;;;5066669;28;20399;-80
2023/12/08 10:49:19;;;;;;;1999.90;999.90;;;1.70;99.90;;;;;;5066062;28;20040;-80
2023/12/08 10:51:49;;;;;;;1999.90;999.90;;;1.70;99.90;;;;;;5082612;28;20046;-81
2023/12/08 10:54:18;;;;;;;1999.90;999.90;;;1.70;99.90;;;;;;5085484;28;20051;-81
2023/12/08 10:56:45;;;;;;;1999.90;999.90;;;1.70;99.90;;;;;;5068818;28;20505;-80
2023/12/08 10:59:18;;;;;;;1999.90;999.90;;;1.80;99.90;;;;;;5084400;28;20135;-80
2023/12/08 11:01:46;;;;;;;1999.90;999.90;;;1.80;99.90;;;;;;5074080;28;20073;-80
2023/12/08 11:04:15;;;;;;;1999.90;999.90;;;1.80;99.90;;;;;;5086815;28;20642;-81
2023/12/08 11:06:52;;;;;;;1999.90;999.90;;;1.80;99.90;;;;;;5089910;28;20039;-81
2023/12/08 11:09:21;;;;;;;1999.90;999.90;;;1.90;99.90;;;;;;5089738;28;20554;-80
2023/12/08 11:11:53;;;;;;;1999.90;999.90;;;1.90;99.90;;;;;;5089107;28;20039;-80
2023/12/08 11:14:36;;;;;;;1999.90;999.90;;;1.90;99.90;;;;;;5084745;28;20038;-80
2023/12/08 11:17:06;;;;;;;1999.90;999.90;;;1.90;99.90;;;;;;5068642;28;20040;-80
2023/12/08 11:19:33;;;;;;;1999.90;999.90;;;1.90;99.90;;;;;;5074550;28;20100;-80
2023/12/08 11:22:00;;;;;;;1999.90;999.90;;;1.90;99.90;;;;;;5086180;28;20409;-80
2023/12/08 11:24:27;;;;;;;1999.90;999.90;;;1.90;99.90;;;;;;5066094;28;20381;-80
2023/12/08 11:27:26;;;;;;;1999.90;999.90;;;1.90;99.90;;;;;;5089431;28;20063;-80
2023/12/08 11:29:54;;;;;;;1999.90;999.90;;;1.90;99.90;;;;;;5060668;28;20046;-80
2023/12/08 11:32:45;;;;;;;1999.90;999.90;;;1.90;99.90;;;;;;5071117;28;20096;-80
2023/12/08 11:35:14;;;;;;;1999.90;999.90;;;2.00;99.90;;;;;;5072871;28;20130;-80
2023/12/08 11:37:44;;;;;;;1999.90;999.90;;;2.00;99.90;;;;;;5109406;28;20169;-80
2023/12/08 11:40:12;;;;;;;1999.90;999.90;;;2.00;99.90;;;;;;5089154;28;20387;-80
2023/12/08 11:42:39;;;;;;;1999.90;999.90;;;2.00;99.90;;;;;;5085591;28;20182;-80
2023/12/08 11:45:07;;;;;;;1999.90;999.90;;;2.00;99.90;;;;;;5071032;28;20043;-80
2023/12/08 11:47:34;;;;;;;1999.90;999.90;;;2.10;99.90;;;;;;5102991;28;20040;-80
2023/12/08 11:50:05;;;;;;;1999.90;999.90;;;2.10;99.90;;;;;;5089842;28;20050;-80
2023/12/08 11:52:36;;;;;;;1999.90;999.90;;;2.10;99.90;;;;;;5086909;28;20139;-80
2023/12/08 11:55:16;;;;;;;1999.90;999.90;;;2.10;99.90;;;;;;5086282;28;20041;-80
2023/12/08 11:57:59;;;;;;;1999.90;999.90;;;2.10;99.90;;;;;;5083766;28;20089;-80
2023/12/08 12:00:26;;;;;;;1999.90;999.90;;;2.10;99.90;;;;;;5097820;28;20043;-80
2023/12/08 12:02:53;;;;;;;1999.90;999.90;;;2.10;99.90;;;;;;5089068;28;20122;-80
2023/12/08 12:05:19;;;;;;;1999.90;999.90;;;2.20;99.90;;;;;;5099194;28;20047;-80